Bayview, Georgia
Current Conditions -  °F | °C
As of 2:58 AM on Saturday 22 Nov 2014 (Local Time) from KLHW Reporting Station
Clear Clear  
Wind Chill: 45°   Ceiling: Unl
Heat Index: 49°   Visibility: 10mi
Dew Point: 43°   Wind: 9mph
Humidity: 79%   Direction: 40°NE
Pressure: 30.4"   Gusts: NA
Location:  31.755°N, 81.7451°W
Report Text: KLHW 220758Z AUTO 04008KT 10SM CLR 09/06 A3040 RMK AO2 SLP297 T00930059
Loading
Personal Weather Stations






























Interactive Weather Map New forecast layout! Learn more

10-Day Weather Forecast

Advertisements
Track Severe Weather on mobile